Terminal Aerodrome Forecast
Issued by NWS

Current Version | Previous Version | Text Only | Print | Product List | Glossary On
Versions: 1 2 3 4 5 6 7 8 9 10 11 12 13 14 15 16 17 18 19 20 21
000
FTAK31 PAJN 020500
TAFAJN
TAF
PAJN 020520Z 0206/0306 07003KT 6SM BR VCSH FEW005 BKN035 BKN060
     FM020900 00000KT 4SM BR BKN070 BKN100
     FM021200 00000KT 2SM BR VCFG FEW002 SCT007 BKN070
     FM021700 07005KT P6SM BKN070
     FM030300 08006KT P6SM VCSH BKN050=

USA.gov is the U.S. government's official web portal to all federal, state and local government web resources and services.